Time;durP1;ratioP1;P1;durP2;ratioP2;P2;SDS_P1;SDS_P2;PMS_P1;PMS_P2;Temp;Humidity;BMP_temperature;BMP_pressure;BME280_temperature;BME280_humidity;BME280_pressure;Samples;Min_cycle;Max_cycle;Signal;HPM_P1;HPM_P2
2021/08/10 00:00:04;;;;;;;4.50;3.80;;;;;;;;;;2060365;28;20204;-59
2021/08/10 00:01:11;;;;;;;3.45;3.15;;;;;;;;;;2065070;28;20170;-58
2021/08/10 00:02:11;;;;;;;4.38;3.38;;;;;;;;;;2062010;28;20268;-63
2021/08/10 00:03:11;;;;;;;3.47;3.10;;;;;;;;;;2059079;28;20606;-56
2021/08/10 00:04:12;;;;;;;4.88;3.50;;;;;;;;;;2055827;28;20213;-59
2021/08/10 00:05:12;;;;;;;3.63;3.33;;;;;;;;;;2056249;28;20580;-57
2021/08/10 00:06:12;;;;;;;3.72;3.42;;;;;;;;;;2060763;28;20185;-59
2021/08/10 00:07:12;;;;;;;3.72;3.38;;;;;;;;;;2061147;28;20174;-59
2021/08/10 00:08:14;;;;;;;4.00;3.20;;;;;;;;;;2065301;28;20229;-60
2021/08/10 00:09:14;;;;;;;3.63;3.28;;;;;;;;;;2064022;28;20173;-59
2021/08/10 00:10:14;;;;;;;4.20;3.38;;;;;;;;;;2064270;28;20174;-62
2021/08/10 00:11:15;;;;;;;4.30;3.20;;;;;;;;;;2064450;28;20178;-60
2021/08/10 00:12:15;;;;;;;4.13;3.03;;;;;;;;;;2064141;28;20182;-60
2021/08/10 00:13:16;;;;;;;4.03;3.63;;;;;;;;;;2064698;28;20177;-60
2021/08/10 00:14:17;;;;;;;4.78;3.78;;;;;;;;;;2064242;28;20240;-58
2021/08/10 00:15:17;;;;;;;3.15;2.95;;;;;;;;;;2063721;28;20205;-61
2021/08/10 00:16:17;;;;;;;3.50;3.20;;;;;;;;;;2064974;28;20201;-59
2021/08/10 00:17:17;;;;;;;4.30;3.60;;;;;;;;;;2063563;28;20188;-65
2021/08/10 00:18:18;;;;;;;3.80;3.50;;;;;;;;;;2064578;28;20257;-60
2021/08/10 00:19:18;;;;;;;4.10;3.28;;;;;;;;;;2064788;28;20176;-58
2021/08/10 00:20:19;;;;;;;4.45;3.90;;;;;;;;;;2063617;28;20201;-60
2021/08/10 00:21:19;;;;;;;5.25;3.60;;;;;;;;;;2064031;28;20196;-59
2021/08/10 00:22:19;;;;;;;4.43;3.45;;;;;;;;;;2062159;28;20200;-59
2021/08/10 00:23:20;;;;;;;3.42;3.13;;;;;;;;;;2060300;28;20240;-62
2021/08/10 00:24:20;;;;;;;5.05;4.15;;;;;;;;;;2059215;28;20205;-59
2021/08/10 00:25:21;;;;;;;3.15;2.95;;;;;;;;;;2061031;28;20173;-60
2021/08/10 00:26:21;;;;;;;4.53;3.47;;;;;;;;;;2064636;28;20173;-60
2021/08/10 00:27:22;;;;;;;3.63;3.33;;;;;;;;;;2065222;28;20266;-55
2021/08/10 00:28:22;;;;;;;4.88;3.63;;;;;;;;;;2057874;28;20753;-60
2021/08/10 00:29:23;;;;;;;3.50;3.20;;;;;;;;;;2058237;28;20190;-57
2021/08/10 00:30:23;;;;;;;3.90;3.60;;;;;;;;;;2064091;28;20228;-61
2021/08/10 00:31:23;;;;;;;4.20;3.80;;;;;;;;;;2063169;28;20170;-59
2021/08/10 00:32:24;;;;;;;3.63;3.33;;;;;;;;;;2052903;28;20261;-59
2021/08/10 00:33:24;;;;;;;5.30;3.83;;;;;;;;;;2063124;28;20177;-56
2021/08/10 00:34:24;;;;;;;4.18;3.78;;;;;;;;;;2066590;28;20278;-60
2021/08/10 00:35:25;;;;;;;4.97;3.33;;;;;;;;;;2068358;28;20177;-60
2021/08/10 00:36:25;;;;;;;4.57;3.50;;;;;;;;;;2064714;28;20622;-59
2021/08/10 00:37:25;;;;;;;3.92;3.53;;;;;;;;;;2059533;28;20661;-61
2021/08/10 00:38:26;;;;;;;4.15;3.85;;;;;;;;;;2055326;28;20221;-57
2021/08/10 00:39:28;;;;;;;4.35;3.63;;;;;;;;;;2064592;28;20176;-60
2021/08/10 00:40:29;;;;;;;4.00;3.30;;;;;;;;;;2063549;28;20216;-58
2021/08/10 00:41:30;;;;;;;3.33;3.10;;;;;;;;;;2055343;28;20261;-58
2021/08/10 00:42:33;;;;;;;4.07;3.35;;;;;;;;;;2062306;28;20683;-58
2021/08/10 00:43:34;;;;;;;3.80;3.47;;;;;;;;;;2058723;28;20173;-58
2021/08/10 00:44:38;;;;;;;3.65;3.35;;;;;;;;;;2065611;28;20213;-60
2021/08/10 00:45:38;;;;;;;4.50;3.13;;;;;;;;;;2056576;28;20301;-58
2021/08/10 00:46:38;;;;;;;4.65;3.35;;;;;;;;;;2055678;28;20167;-58
2021/08/10 00:47:39;;;;;;;4.28;3.80;;;;;;;;;;2047883;28;20640;-56
2021/08/10 00:48:41;;;;;;;3.42;3.22;;;;;;;;;;2061660;28;20169;-59
2021/08/10 00:49:42;;;;;;;3.78;3.40;;;;;;;;;;2065593;28;20178;-61
2021/08/10 00:50:43;;;;;;;3.60;3.30;;;;;;;;;;2063977;28;20181;-61
2021/08/10 00:51:44;;;;;;;3.80;3.10;;;;;;;;;;2055341;28;20205;-61
2021/08/10 00:52:47;;;;;;;4.32;3.38;;;;;;;;;;2048566;28;20198;-60
2021/08/10 00:53:49;;;;;;;5.65;3.28;;;;;;;;;;2063909;28;20264;-57
2021/08/10 00:54:52;;;;;;;3.42;3.13;;;;;;;;;;2062444;28;20208;-61
2021/08/10 00:55:53;;;;;;;4.90;3.28;;;;;;;;;;2052646;28;20178;-58
2021/08/10 00:56:54;;;;;;;3.33;2.95;;;;;;;;;;2048174;28;20194;-61
2021/08/10 00:58:00;;;;;;;3.67;3.28;;;;;;;;;;2056373;28;20174;-60
2021/08/10 00:59:01;;;;;;;3.53;3.00;;;;;;;;;;2049188;28;20624;-60
2021/08/10 01:00:06;;;;;;;3.20;2.90;;;;;;;;;;2056102;28;20181;-61
2021/08/10 01:01:07;;;;;;;3.95;3.03;;;;;;;;;;2064856;28;20253;-59
2021/08/10 01:02:07;;;;;;;3.42;3.20;;;;;;;;;;2064289;28;20181;-58
2021/08/10 01:03:08;;;;;;;3.35;3.05;;;;;;;;;;2051435;28;20236;-61
2021/08/10 01:04:09;;;;;;;3.40;3.10;;;;;;;;;;2056596;28;20186;-60
2021/08/10 01:05:11;;;;;;;3.08;2.88;;;;;;;;;;2064218;28;20176;-58
2021/08/10 01:06:17;;;;;;;3.72;2.88;;;;;;;;;;2064820;28;20631;-60
2021/08/10 01:07:38;;;;;;;3.45;3.15;;;;;;;;;;2057069;28;20793;-59
2021/08/10 01:08:53;;;;;;;4.35;3.53;;;;;;;;;;2049606;28;20186;-58
2021/08/10 01:09:56;;;;;;;4.43;3.60;;;;;;;;;;2045400;28;20175;-62
2021/08/10 01:11:16;;;;;;;3.40;3.10;;;;;;;;;;2050660;28;20277;-58
2021/08/10 01:12:18;;;;;;;4.20;3.28;;;;;;;;;;2053320;28;20185;-60
2021/08/10 01:13:28;;;;;;;3.45;3.15;;;;;;;;;;2056378;28;20229;-57
2021/08/10 01:14:37;;;;;;;4.47;3.17;;;;;;;;;;2056538;28;20247;-59
2021/08/10 01:15:45;;;;;;;3.63;3.28;;;;;;;;;;2064117;28;20634;-58
2021/08/10 01:16:45;;;;;;;3.42;3.13;;;;;;;;;;2058453;28;20561;-60
2021/08/10 01:17:56;;;;;;;3.75;3.45;;;;;;;;;;2048862;28;20304;-58
2021/08/10 01:19:16;;;;;;;6.35;3.47;;;;;;;;;;2056524;28;20206;-60
2021/08/10 01:20:35;;;;;;;5.60;3.38;;;;;;;;;;2054289;28;20181;-57
2021/08/10 01:21:37;;;;;;;3.58;3.28;;;;;;;;;;2056467;28;20174;-59
2021/08/10 01:22:44;;;;;;;3.58;3.28;;;;;;;;;;2056253;28;20840;-59
2021/08/10 01:23:46;;;;;;;3.38;3.10;;;;;;;;;;2055414;28;20185;-60
2021/08/10 01:24:48;;;;;;;3.60;3.30;;;;;;;;;;2080884;23;20237;-47
2021/08/10 01:26:07;;;;;;;4.30;3.60;;;;;;;;;;2059241;28;20659;-48
2021/08/10 01:27:16;;;;;;;5.85;4.57;;;;;;;;;;2069516;28;20169;-50
2021/08/10 01:28:35;;;;;;;5.45;3.88;;;;;;;;;;2067406;28;20256;-50
2021/08/10 01:29:39;;;;;;;4.40;4.07;;;;;;;;;;2056463;28;20214;-50
2021/08/10 01:31:00;;;;;;;4.65;3.72;;;;;;;;;;2055446;28;20178;-50
2021/08/10 01:32:01;;;;;;;4.43;3.67;;;;;;;;;;2055627;28;20193;-49
2021/08/10 01:33:05;;;;;;;5.25;3.70;;;;;;;;;;2065982;28;20174;-50
2021/08/10 01:34:25;;;;;;;3.60;3.03;;;;;;;;;;2071205;28;20165;-50
2021/08/10 01:35:29;;;;;;;4.07;3.50;;;;;;;;;;2063279;28;20197;-51
2021/08/10 01:36:31;;;;;;;4.55;3.50;;;;;;;;;;2064021;28;20650;-50
2021/08/10 01:37:33;;;;;;;3.85;3.47;;;;;;;;;;2047733;28;20668;-50
2021/08/10 01:38:38;;;;;;;4.18;3.55;;;;;;;;;;2055967;28;20185;-50
2021/08/10 01:39:41;;;;;;;3.63;3.20;;;;;;;;;;2055430;28;20645;-47
2021/08/10 01:40:43;;;;;;;4.10;3.75;;;;;;;;;;2047954;28;20187;-50
2021/08/10 01:41:43;;;;;;;3.67;3.30;;;;;;;;;;2046823;29;20191;-50
2021/08/10 01:42:44;;;;;;;3.85;3.50;;;;;;;;;;2040226;28;20176;-49
2021/08/10 01:43:46;;;;;;;4.38;3.47;;;;;;;;;;2055554;28;20180;-53
2021/08/10 01:44:47;;;;;;;3.38;3.17;;;;;;;;;;2050486;28;20203;-51
2021/08/10 01:45:50;;;;;;;3.90;3.47;;;;;;;;;;2047094;29;20170;-51
2021/08/10 01:46:50;;;;;;;3.90;3.50;;;;;;;;;;2056421;28;20261;-50
2021/08/10 01:47:51;;;;;;;5.22;3.80;;;;;;;;;;2056602;28;20293;-50
2021/08/10 01:48:55;;;;;;;6.05;3.63;;;;;;;;;;2051444;28;20189;-49
2021/08/10 01:49:57;;;;;;;6.80;4.25;;;;;;;;;;2044113;29;20231;-50
2021/08/10 01:50:58;;;;;;;4.55;4.15;;;;;;;;;;2043628;28;20184;-50
2021/08/10 01:52:01;;;;;;;5.45;3.80;;;;;;;;;;2056602;28;20173;-49
2021/08/10 01:53:01;;;;;;;4.72;4.22;;;;;;;;;;2051289;28;20179;-49
2021/08/10 01:54:09;;;;;;;4.65;3.88;;;;;;;;;;2053499;28;20679;-48
2021/08/10 01:55:10;;;;;;;4.45;4.05;;;;;;;;;;2056878;28;20577;-49
2021/08/10 01:56:11;;;;;;;5.03;4.10;;;;;;;;;;2064713;28;20737;-49
2021/08/10 01:57:18;;;;;;;4.28;3.85;;;;;;;;;;2056859;28;20195;-50
2021/08/10 01:58:20;;;;;;;4.38;3.97;;;;;;;;;;2056619;28;20636;-49
2021/08/10 01:59:22;;;;;;;7.70;4.30;;;;;;;;;;2047857;28;20699;-52
2021/08/10 02:00:26;;;;;;;4.97;3.95;;;;;;;;;;2046902;28;20163;-51
2021/08/10 02:01:30;;;;;;;4.70;4.30;;;;;;;;;;2056255;28;20229;-49
2021/08/10 02:02:31;;;;;;;4.50;4.10;;;;;;;;;;2048537;28;20638;-49
2021/08/10 02:03:45;;;;;;;4.68;4.18;;;;;;;;;;2059074;28;20169;-50
2021/08/10 02:04:47;;;;;;;4.65;4.00;;;;;;;;;;2051438;28;21124;-50
2021/08/10 02:05:49;;;;;;;4.85;4.00;;;;;;;;;;2050821;28;20183;-50
2021/08/10 02:06:57;;;;;;;4.97;4.32;;;;;;;;;;2057091;28;20166;-49
2021/08/10 02:08:00;;;;;;;7.10;4.60;;;;;;;;;;2050775;28;20167;-51
2021/08/10 02:09:03;;;;;;;5.45;4.18;;;;;;;;;;2042931;29;20195;-49
2021/08/10 02:10:04;;;;;;;4.43;4.03;;;;;;;;;;2052078;28;20178;-49
2021/08/10 02:11:04;;;;;;;4.40;4.03;;;;;;;;;;2056599;28;20604;-47
2021/08/10 02:12:08;;;;;;;5.03;4.50;;;;;;;;;;2049359;28;20703;-50
2021/08/10 02:13:14;;;;;;;5.68;4.45;;;;;;;;;;2049714;28;20195;-50
2021/08/10 02:14:22;;;;;;;5.57;4.28;;;;;;;;;;2048216;28;20201;-52
2021/08/10 02:15:23;;;;;;;4.72;4.05;;;;;;;;;;2047971;28;20217;-52
2021/08/10 02:16:30;;;;;;;4.47;4.18;;;;;;;;;;2050456;28;20197;-49
2021/08/10 02:17:31;;;;;;;5.00;4.15;;;;;;;;;;2049119;28;20596;-54
2021/08/10 02:18:41;;;;;;;8.40;4.53;;;;;;;;;;2045156;28;20190;-47
2021/08/10 02:19:46;;;;;;;7.28;4.65;;;;;;;;;;2057996;28;20277;-54
2021/08/10 02:20:47;;;;;;;5.28;4.65;;;;;;;;;;2054660;28;20201;-47
2021/08/10 02:21:48;;;;;;;5.55;4.72;;;;;;;;;;2057252;28;20178;-51
2021/08/10 02:22:50;;;;;;;6.90;4.72;;;;;;;;;;2056974;28;20526;-49
2021/08/10 02:23:52;;;;;;;4.63;4.22;;;;;;;;;;2045657;29;20618;-52
2021/08/10 02:24:54;;;;;;;4.82;4.22;;;;;;;;;;2055508;28;20223;-49
2021/08/10 02:25:57;;;;;;;5.00;4.40;;;;;;;;;;2057826;28;20634;-50
2021/08/10 02:27:00;;;;;;;4.70;4.30;;;;;;;;;;2053480;28;20678;-49
2021/08/10 02:28:01;;;;;;;4.55;4.13;;;;;;;;;;2064878;28;20212;-49
2021/08/10 02:29:02;;;;;;;5.00;4.50;;;;;;;;;;2058670;28;20189;-49
2021/08/10 02:30:07;;;;;;;5.65;4.97;;;;;;;;;;2051351;28;20170;-50
2021/08/10 02:31:08;;;;;;;5.20;4.30;;;;;;;;;;2060958;28;20572;-48
2021/08/10 02:32:15;;;;;;;4.80;4.40;;;;;;;;;;2071254;28;20231;-48
2021/08/10 02:33:17;;;;;;;5.55;4.90;;;;;;;;;;2070107;28;20182;-48
2021/08/10 02:34:21;;;;;;;5.20;4.80;;;;;;;;;;2061889;28;20165;-48
2021/08/10 02:35:26;;;;;;;5.20;4.70;;;;;;;;;;2056889;28;20599;-49
2021/08/10 02:36:28;;;;;;;5.13;4.72;;;;;;;;;;2065419;28;20192;-48
2021/08/10 02:37:29;;;;;;;5.25;4.85;;;;;;;;;;2073312;28;20181;-50
2021/08/10 02:38:30;;;;;;;7.28;5.22;;;;;;;;;;2060789;28;20651;-49
2021/08/10 02:39:31;;;;;;;5.05;4.35;;;;;;;;;;2059192;28;20170;-51
2021/08/10 02:40:33;;;;;;;6.43;4.55;;;;;;;;;;2071206;28;20169;-49
2021/08/10 02:41:35;;;;;;;7.32;4.28;;;;;;;;;;2063854;28;20212;-49
2021/08/10 02:42:38;;;;;;;5.18;4.65;;;;;;;;;;2057065;28;20266;-49
2021/08/10 02:43:40;;;;;;;9.48;4.80;;;;;;;;;;2064752;28;20173;-49
2021/08/10 02:44:42;;;;;;;5.28;4.78;;;;;;;;;;2058854;28;20190;-50
2021/08/10 02:45:46;;;;;;;4.95;4.47;;;;;;;;;;2064802;28;20194;-48
2021/08/10 02:46:50;;;;;;;5.70;4.70;;;;;;;;;;2065488;28;20185;-48
2021/08/10 02:48:01;;;;;;;4.65;4.00;;;;;;;;;;2072201;28;20264;-51
2021/08/10 02:49:06;;;;;;;10.60;4.45;;;;;;;;;;2064683;28;20770;-48
2021/08/10 02:50:07;;;;;;;6.50;4.13;;;;;;;;;;2064746;28;20184;-48
2021/08/10 02:51:07;;;;;;;5.40;4.63;;;;;;;;;;2064118;28;20172;-49
2021/08/10 02:52:08;;;;;;;5.55;4.65;;;;;;;;;;2059363;28;20252;-47
2021/08/10 02:53:10;;;;;;;6.22;4.30;;;;;;;;;;2068582;28;20200;-48
2021/08/10 02:54:15;;;;;;;7.32;4.22;;;;;;;;;;2064063;28;20219;-50
2021/08/10 02:55:18;;;;;;;7.25;4.80;;;;;;;;;;2061659;28;20256;-49
2021/08/10 02:56:22;;;;;;;6.63;4.47;;;;;;;;;;2061808;28;20208;-49
2021/08/10 02:57:52;;;;;;;5.35;4.47;;;;;;;;;;2065121;28;20174;-50
2021/08/10 02:58:58;;;;;;;6.28;4.47;;;;;;;;;;2058955;28;20192;-49
2021/08/10 03:00:07;;;;;;;5.63;4.35;;;;;;;;;;2063514;28;20651;-50
2021/08/10 03:01:10;;;;;;;5.20;4.72;;;;;;;;;;2055730;28;20175;-52
2021/08/10 03:02:18;;;;;;;5.32;4.88;;;;;;;;;;2060670;28;20173;-51
2021/08/10 03:03:21;;;;;;;5.80;5.30;;;;;;;;;;2062372;28;20614;-49
2021/08/10 03:04:23;;;;;;;5.47;4.90;;;;;;;;;;2052565;28;20174;-49
2021/08/10 03:05:25;;;;;;;6.85;5.68;;;;;;;;;;2057087;28;20182;-49
2021/08/10 03:06:26;;;;;;;8.80;5.22;;;;;;;;;;2066167;28;20579;-53
2021/08/10 03:07:27;;;;;;;6.07;4.97;;;;;;;;;;2062291;28;20213;-48
2021/08/10 03:08:35;;;;;;;5.93;5.35;;;;;;;;;;2054394;28;20261;-49
2021/08/10 03:09:36;;;;;;;6.07;4.30;;;;;;;;;;2066085;28;20177;-48
2021/08/10 03:10:38;;;;;;;5.80;5.00;;;;;;;;;;2070509;28;21005;-49
2021/08/10 03:11:39;;;;;;;6.15;5.10;;;;;;;;;;2064965;28;20185;-50
2021/08/10 03:12:44;;;;;;;6.55;5.05;;;;;;;;;;2064194;28;20220;-48
2021/08/10 03:13:46;;;;;;;5.47;5.07;;;;;;;;;;2064354;28;20173;-52
2021/08/10 03:14:48;;;;;;;6.32;5.20;;;;;;;;;;2063347;28;20201;-48
2021/08/10 03:15:52;;;;;;;6.13;5.53;;;;;;;;;;2064491;28;20645;-51
2021/08/10 03:16:53;;;;;;;7.72;5.63;;;;;;;;;;2056364;28;20808;-47
2021/08/10 03:18:00;;;;;;;8.00;5.93;;;;;;;;;;2064808;28;20180;-51
2021/08/10 03:19:04;;;;;;;5.90;5.30;;;;;;;;;;2063804;28;20178;-50
2021/08/10 03:20:05;;;;;;;8.27;5.25;;;;;;;;;;2059039;28;20689;-51
2021/08/10 03:21:07;;;;;;;7.53;5.85;;;;;;;;;;2064279;28;20186;-49
2021/08/10 03:22:10;;;;;;;7.68;5.45;;;;;;;;;;2064404;28;20174;-48
2021/08/10 03:23:14;;;;;;;6.22;5.57;;;;;;;;;;2064568;28;20162;-49
2021/08/10 03:24:15;;;;;;;7.63;6.75;;;;;;;;;;2063470;28;20165;-49
2021/08/10 03:25:17;;;;;;;7.07;5.50;;;;;;;;;;2061081;28;20212;-47
2021/08/10 03:26:18;;;;;;;7.70;5.32;;;;;;;;;;2064483;28;20189;-52
2021/08/10 03:27:19;;;;;;;6.30;5.70;;;;;;;;;;2063879;28;20208;-50
2021/08/10 03:28:20;;;;;;;7.00;5.40;;;;;;;;;;2056319;28;20173;-50
2021/08/10 03:29:22;;;;;;;6.47;5.88;;;;;;;;;;2046023;28;20198;-49
2021/08/10 03:30:22;;;;;;;8.30;5.93;;;;;;;;;;2054083;28;20192;-49
2021/08/10 03:31:23;;;;;;;7.13;5.82;;;;;;;;;;2069655;28;20193;-53
2021/08/10 03:32:24;;;;;;;6.50;5.85;;;;;;;;;;2059935;28;20205;-51
2021/08/10 03:33:26;;;;;;;10.68;6.25;;;;;;;;;;2061835;28;20181;-50
2021/08/10 03:34:27;;;;;;;8.75;5.50;;;;;;;;;;2064146;28;20260;-52
2021/08/10 03:35:28;;;;;;;6.43;5.38;;;;;;;;;;2063314;28;20232;-49
2021/08/10 03:36:28;;;;;;;8.35;5.82;;;;;;;;;;2065007;28;20201;-53
2021/08/10 03:37:30;;;;;;;6.60;6.00;;;;;;;;;;2048200;28;20636;-50
2021/08/10 03:38:32;;;;;;;6.95;6.00;;;;;;;;;;2053297;28;20317;-53
2021/08/10 03:39:33;;;;;;;8.55;6.43;;;;;;;;;;2057596;28;20170;-53
2021/08/10 03:40:33;;;;;;;8.30;5.53;;;;;;;;;;2062443;28;20252;-50
2021/08/10 03:41:34;;;;;;;7.03;6.32;;;;;;;;;;2060660;28;20179;-49
2021/08/10 03:42:34;;;;;;;6.63;5.88;;;;;;;;;;2062660;28;20239;-53
2021/08/10 03:43:36;;;;;;;9.05;6.65;;;;;;;;;;2065513;28;20166;-52
2021/08/10 03:44:41;;;;;;;6.60;6.00;;;;;;;;;;2055181;28;20647;-53
2021/08/10 03:45:42;;;;;;;7.32;6.28;;;;;;;;;;2048536;28;20166;-50
2021/08/10 03:46:42;;;;;;;6.97;6.05;;;;;;;;;;2049458;28;20179;-54
2021/08/10 03:47:43;;;;;;;7.72;6.10;;;;;;;;;;2068481;28;20223;-53
2021/08/10 03:48:44;;;;;;;6.88;6.20;;;;;;;;;;2072128;28;20173;-51
2021/08/10 03:49:47;;;;;;;8.10;6.63;;;;;;;;;;2068575;28;20658;-51
2021/08/10 03:50:52;;;;;;;7.50;6.75;;;;;;;;;;2063992;28;20184;-50
2021/08/10 03:51:54;;;;;;;10.45;6.85;;;;;;;;;;2063415;28;20766;-52
2021/08/10 03:52:55;;;;;;;9.32;6.97;;;;;;;;;;2064063;28;20178;-50
2021/08/10 03:53:55;;;;;;;8.55;6.93;;;;;;;;;;2064057;28;20544;-54
2021/08/10 03:54:56;;;;;;;7.47;6.70;;;;;;;;;;2054629;28;20269;-52
2021/08/10 03:55:58;;;;;;;9.23;6.90;;;;;;;;;;2051582;28;20179;-52
2021/08/10 03:57:06;;;;;;;14.00;6.90;;;;;;;;;;2057380;28;20277;-50
2021/08/10 03:58:07;;;;;;;7.68;6.55;;;;;;;;;;2064477;28;20634;-50
2021/08/10 03:59:10;;;;;;;7.28;6.55;;;;;;;;;;2062731;28;20205;-49
2021/08/10 04:00:15;;;;;;;8.57;6.95;;;;;;;;;;2065233;28;20181;-50
2021/08/10 04:01:23;;;;;;;8.35;6.80;;;;;;;;;;2059912;28;20547;-51
2021/08/10 04:02:25;;;;;;;7.93;7.07;;;;;;;;;;2060752;28;20170;-51
2021/08/10 04:03:30;;;;;;;6.95;6.30;;;;;;;;;;2059764;28;20200;-51
2021/08/10 04:04:31;;;;;;;10.10;6.97;;;;;;;;;;2062908;28;20180;-48
2021/08/10 04:05:43;;;;;;;7.68;6.88;;;;;;;;;;2063771;28;20161;-53
2021/08/10 04:06:45;;;;;;;9.40;7.25;;;;;;;;;;2056839;28;20569;-50
2021/08/10 04:07:45;;;;;;;8.23;7.43;;;;;;;;;;2064014;28;20196;-50
2021/08/10 04:08:45;;;;;;;8.15;7.35;;;;;;;;;;2064154;28;20177;-52
2021/08/10 04:09:46;;;;;;;9.48;7.13;;;;;;;;;;2048105;28;20591;-53
2021/08/10 04:10:52;;;;;;;8.10;7.30;;;;;;;;;;2049424;28;20166;-51
2021/08/10 04:11:57;;;;;;;9.85;7.72;;;;;;;;;;2060603;28;20177;-50
2021/08/10 04:12:57;;;;;;;10.82;7.82;;;;;;;;;;2064265;28;20178;-52
2021/08/10 04:14:01;;;;;;;9.40;8.32;;;;;;;;;;2056031;28;20166;-49
2021/08/10 04:15:05;;;;;;;9.25;8.38;;;;;;;;;;2057653;28;20206;-48
2021/08/10 04:16:09;;;;;;;9.70;8.45;;;;;;;;;;2064527;28;20177;-49
2021/08/10 04:17:15;;;;;;;9.15;7.95;;;;;;;;;;2057763;28;20162;-49
2021/08/10 04:18:20;;;;;;;10.15;8.82;;;;;;;;;;2063362;28;20236;-50
2021/08/10 04:19:22;;;;;;;10.63;8.40;;;;;;;;;;2062228;28;20174;-52
2021/08/10 04:20:25;;;;;;;11.63;8.93;;;;;;;;;;2054599;28;20181;-49
2021/08/10 04:21:26;;;;;;;10.38;9.38;;;;;;;;;;2063112;28;20158;-52
2021/08/10 04:22:28;;;;;;;10.63;8.95;;;;;;;;;;2054221;28;20179;-51
2021/08/10 04:23:30;;;;;;;12.45;9.70;;;;;;;;;;2055900;28;20282;-52
2021/08/10 04:24:32;;;;;;;11.07;9.07;;;;;;;;;;2052386;28;20167;-50
2021/08/10 04:25:37;;;;;;;13.07;10.05;;;;;;;;;;2052666;28;20190;-51
2021/08/10 04:26:39;;;;;;;10.40;9.35;;;;;;;;;;2049448;28;20171;-54
2021/08/10 04:27:40;;;;;;;11.20;9.95;;;;;;;;;;2062842;28;20177;-50
2021/08/10 04:28:41;;;;;;;12.60;9.43;;;;;;;;;;2063881;28;20212;-50
2021/08/10 04:29:42;;;;;;;11.65;9.98;;;;;;;;;;2053446;28;20213;-53
2021/08/10 04:30:45;;;;;;;9.85;8.85;;;;;;;;;;2061905;28;20186;-50
2021/08/10 04:31:48;;;;;;;13.23;9.90;;;;;;;;;;2071450;28;20744;-53
2021/08/10 04:32:49;;;;;;;12.45;9.85;;;;;;;;;;2063171;28;20174;-49
2021/08/10 04:33:51;;;;;;;11.63;9.38;;;;;;;;;;2052357;28;20175;-51
2021/08/10 04:34:54;;;;;;;10.68;9.43;;;;;;;;;;2055470;28;20229;-49
2021/08/10 04:35:56;;;;;;;11.45;9.32;;;;;;;;;;2061747;28;20174;-52
2021/08/10 04:36:57;;;;;;;10.18;8.88;;;;;;;;;;2063950;28;20717;-49
2021/08/10 04:37:58;;;;;;;11.45;9.15;;;;;;;;;;2063826;28;20281;-52
2021/08/10 04:38:59;;;;;;;10.90;9.60;;;;;;;;;;2054150;28;20674;-53
2021/08/10 04:40:00;;;;;;;10.98;9.77;;;;;;;;;;2055510;28;20213;-52
2021/08/10 04:41:32;;;;;;;11.23;9.15;;;;;;;;;;2054949;28;20183;-53
2021/08/10 04:42:35;;;;;;;9.65;8.77;;;;;;;;;;2053316;28;21144;-49
2021/08/10 04:43:35;;;;;;;9.50;8.57;;;;;;;;;;2056849;28;20216;-51
2021/08/10 04:44:35;;;;;;;10.65;8.25;;;;;;;;;;2063345;28;20244;-48
2021/08/10 04:45:36;;;;;;;9.40;8.50;;;;;;;;;;2064055;28;20174;-49
2021/08/10 04:46:36;;;;;;;9.15;8.18;;;;;;;;;;2064214;28;20180;-49
2021/08/10 04:47:36;;;;;;;8.50;7.70;;;;;;;;;;2063757;28;20169;-52
2021/08/10 04:48:39;;;;;;;14.40;8.55;;;;;;;;;;2060990;28;20208;-53
2021/08/10 04:49:43;;;;;;;11.00;8.20;;;;;;;;;;2055384;28;20174;-51
2021/08/10 04:50:45;;;;;;;9.45;8.13;;;;;;;;;;2056179;28;20261;-51
2021/08/10 04:51:50;;;;;;;9.50;8.25;;;;;;;;;;2064140;28;20161;-48
2021/08/10 04:52:51;;;;;;;8.35;7.55;;;;;;;;;;2064074;28;20205;-51
2021/08/10 04:53:54;;;;;;;11.07;7.85;;;;;;;;;;2063896;28;20169;-52
2021/08/10 04:54:57;;;;;;;9.60;7.93;;;;;;;;;;2056769;28;20767;-49
2021/08/10 04:55:58;;;;;;;10.98;7.70;;;;;;;;;;2050257;28;20179;-48
2021/08/10 04:57:01;;;;;;;9.85;7.60;;;;;;;;;;2064193;28;20541;-49
2021/08/10 04:58:05;;;;;;;9.73;7.38;;;;;;;;;;2072609;28;20188;-50
2021/08/10 04:59:05;;;;;;;8.95;7.60;;;;;;;;;;2063307;28;20178;-50
2021/08/10 05:00:06;;;;;;;8.65;7.57;;;;;;;;;;2055657;28;20182;-48
2021/08/10 05:01:08;;;;;;;11.13;8.00;;;;;;;;;;2055933;28;20170;-48
2021/08/10 05:02:13;;;;;;;9.57;7.90;;;;;;;;;;2064758;28;20170;-48
2021/08/10 05:03:13;;;;;;;8.73;7.85;;;;;;;;;;2062432;28;20158;-47
2021/08/10 05:04:13;;;;;;;8.90;7.97;;;;;;;;;;2051057;28;20576;-51
2021/08/10 05:05:15;;;;;;;9.40;8.38;;;;;;;;;;2062443;28;20268;-47
2021/08/10 05:06:16;;;;;;;8.35;7.55;;;;;;;;;;2059761;28;20174;-52
2021/08/10 05:07:17;;;;;;;8.23;7.40;;;;;;;;;;2063506;28;20174;-49
2021/08/10 05:08:17;;;;;;;8.27;7.45;;;;;;;;;;2060068;28;20189;-48
2021/08/10 05:09:19;;;;;;;11.45;8.30;;;;;;;;;;2055477;28;20197;-50
2021/08/10 05:10:20;;;;;;;8.15;7.18;;;;;;;;;;2063795;28;20188;-52
2021/08/10 05:11:23;;;;;;;9.45;7.47;;;;;;;;;;2054508;28;20840;-49
2021/08/10 05:12:24;;;;;;;8.85;7.95;;;;;;;;;;2048001;28;20183;-49
2021/08/10 05:13:25;;;;;;;10.80;8.02;;;;;;;;;;2055638;28;20533;-49
2021/08/10 05:14:25;;;;;;;9.18;7.53;;;;;;;;;;2055641;28;20210;-48
2021/08/10 05:15:28;;;;;;;9.60;7.78;;;;;;;;;;2048423;28;20281;-48
2021/08/10 05:16:28;;;;;;;8.95;7.93;;;;;;;;;;2055824;28;20174;-47
2021/08/10 05:17:28;;;;;;;9.57;8.15;;;;;;;;;;2072621;28;20218;-50
2021/08/10 05:18:29;;;;;;;8.80;7.95;;;;;;;;;;2072132;28;20677;-50
2021/08/10 05:19:30;;;;;;;9.10;7.50;;;;;;;;;;2055661;28;20734;-47
2021/08/10 05:20:30;;;;;;;8.50;7.63;;;;;;;;;;2055812;28;20166;-46
2021/08/10 05:21:31;;;;;;;8.65;7.78;;;;;;;;;;2063518;28;20237;-52
2021/08/10 05:22:31;;;;;;;9.15;8.13;;;;;;;;;;2063321;28;20165;-50
2021/08/10 05:23:34;;;;;;;9.35;7.68;;;;;;;;;;2065738;28;20276;-49
2021/08/10 05:24:35;;;;;;;13.48;7.97;;;;;;;;;;2066300;28;20209;-52
2021/08/10 05:25:39;;;;;;;11.23;9.93;;;;;;;;;;2073349;28;20176;-55
2021/08/10 05:26:43;;;;;;;8.75;6.63;;;;;;;;;;2072594;28;20205;-50
2021/08/10 05:27:45;;;;;;;9.25;8.02;;;;;;;;;;2073288;28;20173;-52
2021/08/10 05:28:45;;;;;;;11.85;9.80;;;;;;;;;;2073046;28;20248;-57
2021/08/10 05:29:46;;;;;;;8.00;6.88;;;;;;;;;;2066201;28;20178;-50
2021/08/10 05:30:47;;;;;;;10.85;7.35;;;;;;;;;;2065706;28;20572;-47
2021/08/10 05:31:47;;;;;;;7.97;7.28;;;;;;;;;;2056760;28;20166;-55
2021/08/10 05:32:48;;;;;;;9.13;6.93;;;;;;;;;;2057573;28;20177;-49
2021/08/10 05:33:49;;;;;;;7.35;6.72;;;;;;;;;;2056805;28;20553;-49
2021/08/10 05:34:50;;;;;;;7.43;6.40;;;;;;;;;;2057512;28;20186;-48
2021/08/10 05:35:52;;;;;;;8.55;6.88;;;;;;;;;;2064046;28;20185;-53
2021/08/10 05:36:53;;;;;;;9.73;7.43;;;;;;;;;;2053496;28;20208;-48
2021/08/10 05:37:53;;;;;;;7.60;6.75;;;;;;;;;;2056648;28;20769;-52
2021/08/10 05:38:54;;;;;;;10.68;7.03;;;;;;;;;;2065214;28;20177;-47
2021/08/10 05:39:54;;;;;;;8.85;6.50;;;;;;;;;;2073660;28;20177;-47
2021/08/10 05:40:55;;;;;;;10.48;6.75;;;;;;;;;;2072940;28;20557;-48
2021/08/10 05:41:55;;;;;;;8.93;6.25;;;;;;;;;;2064850;28;20254;-49
2021/08/10 05:42:55;;;;;;;8.15;6.50;;;;;;;;;;2065072;28;20195;-51
2021/08/10 05:43:56;;;;;;;9.77;7.10;;;;;;;;;;2073453;28;20167;-46
2021/08/10 05:44:56;;;;;;;7.53;6.63;;;;;;;;;;2064927;28;20335;-51
2021/08/10 05:45:57;;;;;;;7.78;6.30;;;;;;;;;;2056791;28;20190;-49
2021/08/10 05:46:57;;;;;;;9.13;6.47;;;;;;;;;;2065440;28;20553;-48
2021/08/10 05:47:58;;;;;;;8.88;6.47;;;;;;;;;;2065983;28;20173;-51
2021/08/10 05:48:59;;;;;;;8.88;5.90;;;;;;;;;;2072241;28;20181;-52
2021/08/10 05:50:00;;;;;;;8.18;6.15;;;;;;;;;;2065058;28;20534;-51
2021/08/10 05:51:05;;;;;;;6.20;5.60;;;;;;;;;;2053455;28;20814;-51
2021/08/10 05:52:08;;;;;;;7.88;5.95;;;;;;;;;;2058320;28;20188;-52
2021/08/10 05:53:10;;;;;;;10.93;6.38;;;;;;;;;;2048904;28;20572;-50
2021/08/10 05:54:13;;;;;;;7.78;5.85;;;;;;;;;;2049325;28;20322;-53
2021/08/10 05:55:18;;;;;;;7.85;6.07;;;;;;;;;;2053778;28;20258;-54
2021/08/10 05:56:22;;;;;;;9.27;6.03;;;;;;;;;;2057186;28;20302;-48
2021/08/10 05:57:24;;;;;;;6.63;5.85;;;;;;;;;;2054058;28;20186;-50
2021/08/10 05:58:28;;;;;;;6.22;5.70;;;;;;;;;;2064859;28;20190;-50
2021/08/10 05:59:32;;;;;;;7.43;6.20;;;;;;;;;;2062038;28;20178;-49
2021/08/10 06:00:36;;;;;;;11.10;6.45;;;;;;;;;;2064827;28;20276;-47
2021/08/10 06:01:44;;;;;;;8.15;6.55;;;;;;;;;;2064485;28;20169;-49
2021/08/10 06:02:44;;;;;;;6.97;6.25;;;;;;;;;;2056602;28;20630;-47
2021/08/10 06:03:46;;;;;;;8.10;6.57;;;;;;;;;;2064446;28;20186;-52
2021/08/10 06:04:52;;;;;;;7.22;6.22;;;;;;;;;;2063489;28;20204;-52
2021/08/10 06:05:54;;;;;;;7.85;5.75;;;;;;;;;;2056513;28;20182;-51
2021/08/10 06:06:54;;;;;;;7.43;6.28;;;;;;;;;;2063236;28;20667;-49
2021/08/10 06:07:57;;;;;;;7.25;6.55;;;;;;;;;;2065098;28;20165;-51
2021/08/10 06:09:01;;;;;;;7.35;5.90;;;;;;;;;;2057240;28;20202;-50
2021/08/10 06:10:03;;;;;;;5.85;5.32;;;;;;;;;;2057263;28;20237;-50
2021/08/10 06:11:03;;;;;;;6.60;5.53;;;;;;;;;;2056461;28;20269;-49
2021/08/10 06:12:04;;;;;;;8.80;5.82;;;;;;;;;;2065359;28;20686;-52
2021/08/10 06:13:05;;;;;;;6.05;4.93;;;;;;;;;;2065083;28;20291;-48
2021/08/10 06:14:05;;;;;;;6.38;4.80;;;;;;;;;;2064901;28;20185;-47
2021/08/10 06:15:07;;;;;;;6.13;5.35;;;;;;;;;;2061293;28;20208;-49